Time;durP1;ratioP1;P1;durP2;ratioP2;P2;SDS_P1;SDS_P2;PMS_P1;PMS_P2;Temp;Humidity;BMP_temperature;BMP_pressure;BME280_temperature;BME280_humidity;BME280_pressure;Samples;Min_cycle;Max_cycle;Signal;HPM_P1;HPM_P2
2023/09/10 00:01:23;;;;;;;1.25;1.15;;;18.70;48.20;;;;;;5022852;28;20486;-72
2023/09/10 00:03:49;;;;;;;3.15;1.13;;;18.70;48.30;;;;;;5034533;28;20437;-72
2023/09/10 00:06:14;;;;;;;1.30;1.20;;;18.60;48.30;;;;;;5035083;28;20395;-72
2023/09/10 00:08:40;;;;;;;1.52;1.15;;;18.60;48.30;;;;;;5034188;28;20486;-71
2023/09/10 00:11:06;;;;;;;1.58;1.42;;;18.60;48.40;;;;;;5026372;28;20030;-72
2023/09/10 00:13:31;;;;;;;3.63;1.25;;;18.60;48.50;;;;;;5018644;28;20029;-72
2023/09/10 00:15:57;;;;;;;1.05;1.02;;;18.50;48.50;;;;;;5032227;28;20075;-71
2023/09/10 00:18:23;;;;;;;1.42;1.33;;;18.50;48.50;;;;;;5018521;28;20053;-72
2023/09/10 00:20:51;;;;;;;1.35;1.25;;;18.50;48.60;;;;;;5025181;28;20460;-72
2023/09/10 00:23:17;;;;;;;1.70;1.30;;;18.50;48.60;;;;;;5014548;28;20461;-72
2023/09/10 00:25:43;;;;;;;1.67;0.95;;;18.50;48.70;;;;;;5032990;28;20112;-72
2023/09/10 00:28:08;;;;;;;1.48;1.38;;;18.50;48.70;;;;;;5034033;28;20029;-72
2023/09/10 00:30:35;;;;;;;1.20;1.10;;;18.50;48.70;;;;;;5035339;28;20056;-72
2023/09/10 00:33:01;;;;;;;1.88;1.30;;;18.40;48.70;;;;;;5034052;28;20029;-72
2023/09/10 00:35:27;;;;;;;1.40;1.23;;;18.40;49.40;;;;;;5035091;28;20052;-72
2023/09/10 00:37:53;;;;;;;2.08;1.33;;;18.40;48.80;;;;;;5017971;28;20034;-72
2023/09/10 00:40:19;;;;;;;1.83;1.50;;;18.40;48.90;;;;;;5015775;28;20085;-73
2023/09/10 00:42:44;;;;;;;1.95;1.55;;;18.40;49.00;;;;;;5015408;28;20037;-72
2023/09/10 00:45:12;;;;;;;2.35;1.67;;;18.30;49.00;;;;;;5013801;28;20385;-72
2023/09/10 00:47:47;;;;;;;2.75;1.48;;;18.30;49.10;;;;;;5015247;28;20034;-72
2023/09/10 00:50:17;;;;;;;1.90;1.60;;;18.30;49.20;;;;;;5019372;28;20403;-72
2023/09/10 00:52:49;;;;;;;1.63;1.50;;;18.20;49.10;;;;;;5022070;28;20033;-72
2023/09/10 00:55:16;;;;;;;2.15;1.75;;;18.20;49.20;;;;;;5017071;28;20026;-72
2023/09/10 00:57:42;;;;;;;2.13;1.90;;;18.20;49.20;;;;;;5016555;28;20053;-72
2023/09/10 01:00:09;;;;;;;2.55;1.80;;;18.20;49.20;;;;;;5015065;28;20056;-72
2023/09/10 01:02:35;;;;;;;2.72;2.15;;;18.20;49.30;;;;;;5015290;28;20044;-72
2023/09/10 01:05:01;;;;;;;2.85;2.08;;;18.10;49.40;;;;;;5015127;28;20464;-72
2023/09/10 01:07:27;;;;;;;3.13;2.03;;;18.10;49.40;;;;;;5028314;28;20048;-72
2023/09/10 01:09:53;;;;;;;3.58;2.40;;;18.10;49.50;;;;;;5032107;28;20032;-72
2023/09/10 01:12:40;;;;;;;3.72;2.33;;;18.00;49.50;;;;;;5014695;28;20022;-72
2023/09/10 01:15:12;;;;;;;3.25;2.20;;;18.00;49.80;;;;;;5014945;28;20113;-72
2023/09/10 01:17:46;;;;;;;2.72;2.10;;;18.00;49.70;;;;;;5029831;28;20104;-72
2023/09/10 01:20:44;;;;;;;3.13;2.03;;;18.00;49.90;;;;;;5034849;28;20029;-72
2023/09/10 01:23:42;;;;;;;2.80;2.15;;;18.00;50.10;;;;;;5014886;28;20026;-72
2023/09/10 01:26:07;;;;;;;2.80;2.00;;;17.90;50.00;;;;;;5019449;28;20030;-72
2023/09/10 01:28:33;;;;;;;2.47;1.98;;;17.90;49.80;;;;;;5013353;28;20026;-72
2023/09/10 01:30:59;;;;;;;2.55;2.28;;;17.90;49.90;;;;;;5014787;28;20465;-72
2023/09/10 01:33:35;;;;;;;3.35;2.42;;;17.90;50.00;;;;;;5032884;28;20029;-72
2023/09/10 01:36:14;;;;;;;3.25;1.98;;;17.90;50.00;;;;;;5031666;28;20372;-72
2023/09/10 01:39:17;;;;;;;1.95;1.75;;;17.90;50.00;;;;;;5014273;28;20057;-72
2023/09/10 01:41:45;;;;;;;3.38;2.08;;;17.80;50.10;;;;;;5017258;28;20068;-72
2023/09/10 01:44:12;;;;;;;2.65;1.92;;;17.80;50.00;;;;;;5032481;28;20479;-72
2023/09/10 01:46:39;;;;;;;2.50;1.92;;;17.80;50.00;;;;;;5032051;28;20384;-72
2023/09/10 01:49:05;;;;;;;2.20;2.00;;;17.80;50.00;;;;;;5030458;28;20152;-72
2023/09/10 01:51:31;;;;;;;2.65;1.98;;;17.70;50.00;;;;;;5033593;28;20112;-72
2023/09/10 01:53:57;;;;;;;2.70;1.83;;;17.60;50.00;;;;;;5027266;28;20026;-71
2023/09/10 01:56:23;;;;;;;2.35;1.80;;;17.60;50.10;;;;;;5026522;28;20470;-71
2023/09/10 01:58:49;;;;;;;2.63;1.85;;;17.60;50.10;;;;;;5025805;28;20081;-72
2023/09/10 02:01:14;;;;;;;3.55;2.00;;;17.50;50.20;;;;;;5014099;28;20053;-72
2023/09/10 02:03:41;;;;;;;4.63;1.90;;;17.50;50.20;;;;;;5013815;28;20029;-72
2023/09/10 02:06:06;;;;;;;2.38;1.77;;;17.50;50.40;;;;;;5013723;28;20547;-72
2023/09/10 02:08:32;;;;;;;2.33;1.77;;;17.40;50.50;;;;;;5025440;28;20116;-72
2023/09/10 02:11:03;;;;;;;2.42;1.77;;;17.40;50.60;;;;;;5021265;28;20052;-72
2023/09/10 02:13:28;;;;;;;2.05;1.70;;;17.40;50.70;;;;;;5032653;28;20029;-72
2023/09/10 02:15:54;;;;;;;3.28;1.75;;;17.40;50.80;;;;;;5031838;28;20033;-70
2023/09/10 02:18:19;;;;;;;2.10;1.80;;;17.40;50.90;;;;;;5032230;28;20460;-72
2023/09/10 02:20:45;;;;;;;2.17;1.80;;;17.30;50.90;;;;;;5019256;28;20036;-73
2023/09/10 02:23:11;;;;;;;2.17;1.92;;;17.30;51.00;;;;;;5031442;28;20471;-73
2023/09/10 02:25:36;;;;;;;3.20;2.10;;;17.30;51.00;;;;;;5033852;28;20455;-71
2023/09/10 02:28:03;;;;;;;1.85;1.70;;;17.30;51.10;;;;;;5013657;28;20259;-71
2023/09/10 02:30:29;;;;;;;2.10;1.90;;;17.30;51.10;;;;;;5013831;28;20108;-71
2023/09/10 02:32:55;;;;;;;2.28;1.85;;;17.30;51.20;;;;;;5013927;28;20486;-71
2023/09/10 02:35:21;;;;;;;2.85;2.00;;;17.20;51.30;;;;;;5013603;28;20053;-71
2023/09/10 02:37:47;;;;;;;2.60;1.73;;;17.20;51.40;;;;;;5027710;28;20040;-71
2023/09/10 02:40:12;;;;;;;2.38;1.83;;;17.20;51.60;;;;;;5016481;28;20041;-71
2023/09/10 02:42:39;;;;;;;2.33;1.80;;;17.20;51.70;;;;;;5017627;28;20464;-71
2023/09/10 02:45:05;;;;;;;2.63;1.90;;;17.20;51.80;;;;;;5017413;28;20105;-71
2023/09/10 02:47:31;;;;;;;2.65;2.00;;;17.20;51.90;;;;;;5017443;28;20044;-71
2023/09/10 02:49:57;;;;;;;2.47;2.03;;;17.20;52.00;;;;;;5017364;28;20030;-71
2023/09/10 02:52:26;;;;;;;2.55;2.00;;;17.20;52.10;;;;;;5018109;28;20021;-71
2023/09/10 02:54:52;;;;;;;2.90;1.88;;;17.20;52.20;;;;;;5017606;28;20064;-71
2023/09/10 02:57:18;;;;;;;3.03;2.20;;;17.20;52.30;;;;;;5029111;28;20026;-71
2023/09/10 02:59:43;;;;;;;2.10;1.90;;;17.20;52.40;;;;;;5025652;28;20065;-71
2023/09/10 03:02:09;;;;;;;2.55;1.95;;;17.20;52.40;;;;;;5017767;28;20026;-71
2023/09/10 03:04:35;;;;;;;2.72;2.10;;;17.20;52.60;;;;;;5017155;28;20074;-71
2023/09/10 03:07:01;;;;;;;2.53;2.05;;;17.20;52.70;;;;;;5024468;28;20037;-71
2023/09/10 03:09:27;;;;;;;2.97;2.00;;;17.10;52.80;;;;;;5025619;28;20033;-71
2023/09/10 03:11:57;;;;;;;4.07;2.25;;;17.20;52.80;;;;;;5029924;28;20037;-71
2023/09/10 03:14:23;;;;;;;3.28;2.30;;;17.20;53.00;;;;;;5036580;28;20074;-71
2023/09/10 03:16:48;;;;;;;4.53;2.40;;;17.20;53.10;;;;;;5036365;28;20390;-72
2023/09/10 03:19:14;;;;;;;2.70;2.10;;;17.20;53.20;;;;;;5028756;28;20041;-71
2023/09/10 03:21:39;;;;;;;3.35;2.40;;;17.20;53.30;;;;;;5021674;28;20040;-72
2023/09/10 03:24:05;;;;;;;3.15;2.50;;;17.20;53.30;;;;;;5024267;28;20026;-71
2023/09/10 03:26:31;;;;;;;3.05;2.40;;;17.10;53.30;;;;;;5016438;28;20033;-71
2023/09/10 03:28:57;;;;;;;3.30;2.25;;;17.20;53.40;;;;;;5021083;28;20040;-71
2023/09/10 03:31:22;;;;;;;3.10;2.40;;;17.10;53.50;;;;;;5026753;28;20048;-71
2023/09/10 03:33:49;;;;;;;3.58;2.72;;;17.10;53.60;;;;;;5017239;28;20034;-71
2023/09/10 03:36:14;;;;;;;4.55;2.70;;;17.10;53.60;;;;;;5016803;28;20050;-71
2023/09/10 03:38:40;;;;;;;3.63;2.60;;;17.20;53.70;;;;;;5034326;28;20025;-71
2023/09/10 03:41:05;;;;;;;3.10;2.50;;;17.20;53.80;;;;;;5030185;28;20026;-70
2023/09/10 03:43:31;;;;;;;3.00;2.70;;;17.10;53.80;;;;;;5016583;28;20104;-71
2023/09/10 03:45:57;;;;;;;3.63;2.95;;;17.20;53.80;;;;;;5019122;28;20031;-71
2023/09/10 03:48:22;;;;;;;4.25;3.00;;;17.20;53.90;;;;;;5019956;28;20041;-70
2023/09/10 03:50:49;;;;;;;5.30;2.95;;;17.10;54.00;;;;;;5029378;28;20091;-71
2023/09/10 03:53:14;;;;;;;4.60;2.70;;;17.20;54.00;;;;;;5015066;28;20026;-71
2023/09/10 03:55:40;;;;;;;3.00;2.50;;;17.30;54.00;;;;;;5016454;28;20099;-71
2023/09/10 03:58:06;;;;;;;3.03;2.40;;;17.40;54.00;;;;;;5016218;28;20037;-71
2023/09/10 04:00:33;;;;;;;3.33;2.42;;;17.50;53.90;;;;;;5035774;28;20471;-71
2023/09/10 04:02:59;;;;;;;4.82;2.60;;;17.60;53.90;;;;;;5027868;28;20026;-71
2023/09/10 04:05:25;;;;;;;3.42;2.20;;;17.60;53.80;;;;;;5015116;28;20423;-71
2023/09/10 04:07:51;;;;;;;2.67;2.25;;;17.70;53.80;;;;;;5015965;28;20046;-71
2023/09/10 04:10:16;;;;;;;3.55;2.47;;;17.80;53.80;;;;;;5027258;28;20032;-71
2023/09/10 04:12:42;;;;;;;2.92;2.45;;;17.90;53.70;;;;;;5015760;28;20026;-71
2023/09/10 04:15:08;;;;;;;5.78;2.60;;;18.00;53.80;;;;;;5016014;28;20030;-71
2023/09/10 04:17:34;;;;;;;3.35;2.28;;;18.10;53.70;;;;;;5018519;28;20041;-71
2023/09/10 04:19:59;;;;;;;2.95;2.35;;;18.20;53.60;;;;;;5025398;28;20053;-71
2023/09/10 04:22:25;;;;;;;3.40;2.53;;;18.40;53.40;;;;;;5035205;28;20112;-71
2023/09/10 04:24:51;;;;;;;3.03;2.47;;;18.50;53.20;;;;;;5017935;28;20101;-71
2023/09/10 04:27:17;;;;;;;4.78;2.40;;;18.40;53.00;;;;;;5015732;28;20124;-71
2023/09/10 04:29:43;;;;;;;4.65;2.70;;;18.40;53.10;;;;;;5015480;28;20109;-72
2023/09/10 04:32:08;;;;;;;4.15;2.78;;;18.40;53.10;;;;;;5049311;28;20111;-71
2023/09/10 04:34:34;;;;;;;4.85;2.60;;;18.40;53.10;;;;;;5055078;28;20040;-72
2023/09/10 04:37:02;;;;;;;3.55;2.38;;;18.30;53.10;;;;;;5018153;28;20045;-71
2023/09/10 04:39:27;;;;;;;2.38;2.17;;;18.40;53.10;;;;;;5015338;28;20033;-72
2023/09/10 04:41:53;;;;;;;3.25;2.25;;;18.40;53.00;;;;;;5014919;28;20037;-71
2023/09/10 04:44:19;;;;;;;3.95;2.60;;;18.50;53.00;;;;;;5014990;28;20076;-72
2023/09/10 04:46:45;;;;;;;4.22;2.60;;;18.50;53.00;;;;;;5015207;28;20125;-71
2023/09/10 04:49:11;;;;;;;4.20;2.80;;;18.50;52.90;;;;;;5019795;28;20426;-72
2023/09/10 04:51:37;;;;;;;3.10;2.38;;;18.50;52.90;;;;;;5032622;28;20037;-72
2023/09/10 04:54:03;;;;;;;3.67;2.20;;;18.50;53.00;;;;;;5034553;28;20087;-72
2023/09/10 04:56:28;;;;;;;4.55;2.40;;;18.50;52.90;;;;;;5034673;28;20038;-72
2023/09/10 04:58:54;;;;;;;3.83;2.60;;;18.50;52.90;;;;;;5031223;28;20103;-73
2023/09/10 05:01:19;;;;;;;3.50;2.60;;;18.40;52.90;;;;;;5020519;28;20041;-72
2023/09/10 05:03:45;;;;;;;2.63;2.15;;;18.50;53.00;;;;;;5032907;28;20021;-73
2023/09/10 05:06:12;;;;;;;3.20;2.30;;;18.40;52.90;;;;;;5020981;28;20080;-73
2023/09/10 05:08:38;;;;;;;2.33;2.03;;;18.50;52.90;;;;;;5020084;28;20033;-72
2023/09/10 05:11:04;;;;;;;2.97;2.42;;;18.50;52.90;;;;;;5030800;28;20030;-72
2023/09/10 05:13:30;;;;;;;2.75;2.10;;;18.50;52.90;;;;;;5034101;28;20357;-72
2023/09/10 05:15:57;;;;;;;3.20;2.22;;;18.50;52.80;;;;;;5044595;28;20168;-73
2023/09/10 05:18:26;;;;;;;3.55;2.47;;;18.60;52.90;;;;;;5013983;28;20040;-72
2023/09/10 05:20:53;;;;;;;2.92;2.33;;;18.60;52.80;;;;;;5027260;28;20034;-73
2023/09/10 05:23:23;;;;;;;2.60;2.15;;;18.60;52.80;;;;;;5034309;28;20036;-74
2023/09/10 05:25:49;;;;;;;3.53;2.60;;;18.60;52.80;;;;;;5033752;28;20060;-73
2023/09/10 05:28:16;;;;;;;2.90;2.30;;;18.60;52.80;;;;;;5033991;28;20034;-72
2023/09/10 05:30:41;;;;;;;4.15;2.35;;;18.60;52.80;;;;;;5017122;28;20447;-71
2023/09/10 05:33:07;;;;;;;3.28;2.20;;;18.70;52.90;;;;;;5014236;28;20076;-71
2023/09/10 05:35:32;;;;;;;2.88;2.20;;;18.70;52.70;;;;;;5023474;28;20510;-71
2023/09/10 05:37:59;;;;;;;2.35;1.83;;;18.80;52.70;;;;;;5014661;28;20049;-71
2023/09/10 05:40:25;;;;;;;2.78;1.73;;;18.80;52.60;;;;;;5015270;28;20048;-72
2023/09/10 05:42:51;;;;;;;3.05;2.20;;;18.80;52.60;;;;;;5028017;28;20029;-72
2023/09/10 05:45:17;;;;;;;3.17;1.90;;;18.90;52.60;;;;;;5033476;28;20025;-72
2023/09/10 05:47:43;;;;;;;2.03;1.60;;;18.90;52.60;;;;;;5021897;28;20042;-71
2023/09/10 05:50:09;;;;;;;3.60;2.33;;;18.90;52.50;;;;;;5015338;28;20037;-71
2023/09/10 05:52:34;;;;;;;2.70;1.90;;;18.90;52.40;;;;;;5029671;28;20071;-71
2023/09/10 05:55:00;;;;;;;3.22;2.20;;;19.00;52.50;;;;;;5033885;28;20061;-71
2023/09/10 05:57:26;;;;;;;1.75;1.52;;;19.00;52.40;;;;;;5031748;28;20033;-71
2023/09/10 05:59:52;;;;;;;2.03;1.83;;;19.10;52.40;;;;;;5027061;28;20030;-72
2023/09/10 06:02:17;;;;;;;2.10;1.83;;;19.20;52.20;;;;;;5023490;28;20042;-70
2023/09/10 06:04:43;;;;;;;3.58;1.55;;;19.20;52.20;;;;;;5027210;28;20029;-70
2023/09/10 06:07:09;;;;;;;3.95;1.80;;;19.10;52.10;;;;;;5020612;28;20435;-69
2023/09/10 06:09:34;;;;;;;1.73;1.63;;;19.10;52.10;;;;;;5033412;28;20025;-71
2023/09/10 06:12:03;;;;;;;1.88;1.55;;;19.10;52.10;;;;;;5023258;28;20034;-71
2023/09/10 06:14:30;;;;;;;2.25;1.75;;;19.20;52.10;;;;;;5016832;28;20044;-71
2023/09/10 06:16:58;;;;;;;1.80;1.55;;;19.10;51.90;;;;;;5030590;28;20033;-72
2023/09/10 06:19:24;;;;;;;1.80;1.60;;;19.10;51.90;;;;;;5033436;28;20104;-69
2023/09/10 06:21:50;;;;;;;1.73;1.40;;;19.10;51.90;;;;;;5033183;28;20100;-72
2023/09/10 06:24:15;;;;;;;1.30;1.20;;;19.10;51.80;;;;;;5023629;28;20079;-72
2023/09/10 06:26:42;;;;;;;1.40;1.30;;;19.20;51.70;;;;;;5013586;28;20105;-71
2023/09/10 06:29:07;;;;;;;2.10;1.35;;;19.20;51.50;;;;;;5014859;28;20060;-72
2023/09/10 06:31:33;;;;;;;1.77;1.40;;;19.20;51.40;;;;;;5025471;28;20033;-70
2023/09/10 06:33:59;;;;;;;1.33;1.23;;;19.20;51.20;;;;;;5032022;28;20021;-71
2023/09/10 06:36:25;;;;;;;1.95;1.08;;;19.20;51.00;;;;;;5014526;28;20460;-71
2023/09/10 06:38:51;;;;;;;1.40;1.30;;;19.20;50.80;;;;;;5028346;28;20034;-72
2023/09/10 06:41:17;;;;;;;1.10;0.98;;;19.20;50.70;;;;;;5017699;28;20030;-75
2023/09/10 06:43:44;;;;;;;2.05;1.08;;;19.20;50.70;;;;;;5023941;28;20037;-70
2023/09/10 06:46:10;;;;;;;1.73;1.30;;;19.30;50.80;;;;;;5026840;28;20423;-70
2023/09/10 06:48:36;;;;;;;1.08;0.98;;;19.30;50.60;;;;;;5026967;28;20034;-73
2023/09/10 06:51:02;;;;;;;1.63;1.10;;;19.40;50.50;;;;;;5024026;28;20072;-71
2023/09/10 06:53:28;;;;;;;0.98;0.90;;;19.40;50.40;;;;;;5027325;28;20487;-70
2023/09/10 06:55:54;;;;;;;1.10;1.00;;;19.50;50.30;;;;;;5012001;28;20034;-71
2023/09/10 06:58:20;;;;;;;1.27;1.17;;;19.50;50.20;;;;;;5028542;28;20034;-69
2023/09/10 07:00:46;;;;;;;1.15;1.02;;;19.50;50.10;;;;;;5025346;28;20025;-71
2023/09/10 07:03:13;;;;;;;1.88;1.02;;;19.60;50.10;;;;;;5032659;28;20026;-72
2023/09/10 07:05:40;;;;;;;0.90;0.90;;;19.60;49.90;;;;;;5028101;28;20036;-70
2023/09/10 07:08:07;;;;;;;2.40;1.05;;;19.60;49.80;;;;;;5022921;28;20482;-68
2023/09/10 07:10:33;;;;;;;1.08;0.98;;;19.70;49.70;;;;;;5031120;28;20033;-69
2023/09/10 07:12:59;;;;;;;1.25;1.15;;;19.70;49.60;;;;;;5031485;28;20053;-70
2023/09/10 07:15:25;;;;;;;1.88;1.40;;;19.70;49.60;;;;;;5032758;28;20029;-69
2023/09/10 07:17:51;;;;;;;1.30;1.20;;;19.80;49.60;;;;;;5031858;28;20026;-69
2023/09/10 07:20:17;;;;;;;1.20;1.10;;;19.80;49.50;;;;;;5028470;28;20053;-69
2023/09/10 07:22:42;;;;;;;1.42;1.20;;;19.90;49.50;;;;;;5033282;28;20085;-69
2023/09/10 07:25:08;;;;;;;1.58;1.00;;;19.90;49.30;;;;;;5033508;28;20025;-71
2023/09/10 07:27:34;;;;;;;1.27;1.05;;;20.00;49.30;;;;;;5016481;28;20384;-70
2023/09/10 07:29:59;;;;;;;3.65;1.77;;;20.00;49.30;;;;;;5016678;28;20531;-71
2023/09/10 07:32:25;;;;;;;2.72;1.80;;;20.00;49.60;;;;;;5017675;28;20030;-70
2023/09/10 07:34:51;;;;;;;2.90;2.17;;;20.10;50.40;;;;;;5016506;28;20030;-70
2023/09/10 07:37:16;;;;;;;122.40;106.80;;;20.30;50.80;;;;;;5025967;28;20036;-77
2023/09/10 07:39:43;;;;;;;46.90;42.20;;;20.40;50.60;;;;;;5027458;28;20076;-72
2023/09/10 07:42:08;;;;;;;4.75;3.25;;;20.50;50.00;;;;;;5027829;28;20349;-75
2023/09/10 07:44:34;;;;;;;1.95;1.30;;;20.60;49.90;;;;;;5015137;28;20030;-75
2023/09/10 07:47:00;;;;;;;1.13;1.02;;;20.70;49.60;;;;;;5016313;28;20210;-72
2023/09/10 07:49:25;;;;;;;35.80;30.27;;;20.70;49.40;;;;;;5017372;28;20479;-73
2023/09/10 07:51:51;;;;;;;4.72;3.83;;;20.80;49.10;;;;;;5016682;28;20026;-75
2023/09/10 07:54:17;;;;;;;1.05;1.00;;;20.80;49.10;;;;;;5033361;28;20506;-72
2023/09/10 07:56:43;;;;;;;0.70;0.70;;;20.70;48.60;;;;;;5021418;28;20025;-76
2023/09/10 07:59:11;;;;;;;0.73;0.73;;;20.60;48.30;;;;;;5024332;28;20529;-74
2023/09/10 08:01:40;;;;;;;0.80;0.80;;;20.60;48.20;;;;;;5021346;28;20030;-68
2023/09/10 08:04:06;;;;;;;0.70;0.70;;;20.60;48.00;;;;;;5017556;28;20534;-70
2023/09/10 08:06:32;;;;;;;0.70;0.70;;;20.60;47.90;;;;;;5033447;28;20114;-74
2023/09/10 08:08:57;;;;;;;0.63;0.63;;;20.50;47.80;;;;;;5026017;28;20108;-69
2023/09/10 08:11:23;;;;;;;0.80;0.60;;;20.50;47.70;;;;;;5020183;28;20040;-69
2023/09/10 08:13:49;;;;;;;1.50;0.70;;;20.40;47.60;;;;;;5035136;28;20036;-74
2023/09/10 08:16:16;;;;;;;0.70;0.70;;;20.40;47.50;;;;;;5033532;28;20034;-72
2023/09/10 08:18:42;;;;;;;0.95;0.60;;;20.40;47.40;;;;;;5021000;28;20032;-70
2023/09/10 08:21:08;;;;;;;0.70;0.70;;;20.40;47.30;;;;;;5025380;28;20022;-71
2023/09/10 08:23:34;;;;;;;1.60;0.85;;;20.30;47.20;;;;;;5030456;28;20507;-72
2023/09/10 08:25:59;;;;;;;1.38;1.27;;;20.30;47.90;;;;;;5033592;28;20025;-75
2023/09/10 08:28:25;;;;;;;0.80;0.80;;;20.30;47.20;;;;;;5055436;28;20064;-71
2023/09/10 08:30:51;;;;;;;1.40;0.80;;;20.30;47.20;;;;;;5037632;28;20036;-78
2023/09/10 08:33:17;;;;;;;1.20;1.10;;;20.20;47.10;;;;;;5020803;28;20037;-72
2023/09/10 08:35:47;;;;;;;0.88;0.88;;;20.20;47.10;;;;;;5014745;28;20138;-74
2023/09/10 08:38:13;;;;;;;1.55;1.00;;;20.20;47.10;;;;;;5022411;28;20028;-71
2023/09/10 08:40:59;;;;;;;1.27;1.00;;;20.20;47.20;;;;;;5015320;28;20037;-72
2023/09/10 08:43:37;;;;;;;1.30;0.90;;;20.20;47.10;;;;;;5031660;28;20038;-74
2023/09/10 08:46:08;;;;;;;3.60;1.02;;;20.20;47.10;;;;;;5028600;28;20056;-80
2023/09/10 08:48:35;;;;;;;0.98;0.90;;;20.20;47.10;;;;;;5029649;28;20037;-78
2023/09/10 08:51:01;;;;;;;17.77;15.40;;;20.20;47.00;;;;;;5032328;28;20116;-74
2023/09/10 08:53:28;;;;;;;1.00;0.90;;;20.20;47.10;;;;;;5028724;28;20387;-74
2023/09/10 08:55:55;;;;;;;1.10;1.00;;;20.10;47.20;;;;;;5019257;28;20026;-74
2023/09/10 08:58:21;;;;;;;3.20;1.20;;;20.10;47.10;;;;;;5013452;28;20168;-73
2023/09/10 09:00:50;;;;;;;0.85;0.85;;;20.10;47.10;;;;;;5036108;28;20378;-77
2023/09/10 09:03:16;;;;;;;0.85;0.85;;;20.00;47.00;;;;;;5052917;28;20078;-74
2023/09/10 09:05:42;;;;;;;0.90;0.90;;;20.00;47.10;;;;;;5035245;28;20036;-77
2023/09/10 09:08:15;;;;;;;1.10;1.00;;;20.00;47.10;;;;;;5033197;28;20414;-78
2023/09/10 09:10:40;;;;;;;1.73;0.95;;;20.00;47.10;;;;;;5025157;28;20432;-73
2023/09/10 09:13:09;;;;;;;2.55;1.20;;;20.00;46.90;;;;;;5014814;28;20061;-74
2023/09/10 09:15:38;;;;;;;0.93;0.93;;;20.00;46.90;;;;;;5015041;28;20037;-76
2023/09/10 09:18:07;;;;;;;2.55;1.10;;;20.00;46.90;;;;;;5029652;28;20503;-77
2023/09/10 09:20:36;;;;;;;0.80;0.80;;;20.00;46.90;;;;;;5014873;28;20022;-78
2023/09/10 09:23:27;;;;;;;0.75;0.75;;;20.00;46.90;;;;;;5014715;28;20480;-78
2023/09/10 09:25:55;;;;;;;0.77;0.77;;;20.10;46.80;;;;;;5016794;28;20357;-74
2023/09/10 09:28:22;;;;;;;0.98;0.88;;;20.10;46.80;;;;;;5030839;28;20069;-76
2023/09/10 09:30:47;;;;;;;1.20;1.00;;;20.10;46.80;;;;;;5031635;28;20036;-76
2023/09/10 09:33:13;;;;;;;1.05;0.93;;;20.10;46.80;;;;;;5041107;28;20456;-73
2023/09/10 09:35:39;;;;;;;1.00;1.00;;;20.10;46.80;;;;;;5039125;28;20403;-76
2023/09/10 09:38:13;;;;;;;1.02;0.93;;;20.10;46.70;;;;;;5032503;28;20463;-76
2023/09/10 09:40:39;;;;;;;1.00;1.00;;;20.10;46.50;;;;;;5036138;28;20506;-77
2023/09/10 09:43:09;;;;;;;0.93;0.82;;;20.10;46.50;;;;;;5039560;28;20021;-80
2023/09/10 09:45:39;;;;;;;1.10;1.00;;;20.10;46.50;;;;;;5037569;28;20020;-79
2023/09/10 09:48:05;;;;;;;0.82;0.82;;;20.10;46.40;;;;;;5041528;28;20025;-79
2023/09/10 09:50:31;;;;;;;1.05;1.00;;;20.10;46.40;;;;;;5038598;28;20041;-83
2023/09/10 09:52:58;;;;;;;1.02;0.88;;;20.10;46.40;;;;;;5041971;28;20029;-79
2023/09/10 09:55:24;;;;;;;1.15;1.05;;;20.10;46.50;;;;;;5041211;28;20028;-77
2023/09/10 09:57:49;;;;;;;0.98;0.90;;;20.20;46.50;;;;;;5019634;28;20037;-78
2023/09/10 10:00:16;;;;;;;1.10;1.00;;;20.20;46.40;;;;;;5036101;28;20475;-82
2023/09/10 10:02:42;;;;;;;2.08;1.13;;;20.20;46.40;;;;;;5033672;28;20117;-77
2023/09/10 10:05:08;;;;;;;1.77;1.20;;;20.20;46.40;;;;;;5021511;28;20024;-78
2023/09/10 10:07:37;;;;;;;1.98;1.20;;;20.20;46.30;;;;;;5017490;28;20029;-77
2023/09/10 10:10:17;;;;;;;1.27;1.10;;;20.30;46.30;;;;;;5017412;28;20072;-83
2023/09/10 10:12:44;;;;;;;1.02;0.98;;;20.40;46.60;;;;;;5027281;28;20033;-82
2023/09/10 10:15:11;;;;;;;1.67;1.08;;;20.50;46.90;;;;;;5016295;28;20096;-77
2023/09/10 10:17:39;;;;;;;1.00;1.00;;;20.60;46.80;;;;;;5030765;28;20033;-82
2023/09/10 10:20:07;;;;;;;1.10;1.00;;;20.60;46.80;;;;;;5039494;28;20059;-76
2023/09/10 10:22:34;;;;;;;104.13;91.55;;;20.70;46.70;;;;;;5013212;28;20030;-74
2023/09/10 10:25:00;;;;;;;1.38;1.10;;;20.80;46.70;;;;;;5012568;28;20032;-83
2023/09/10 10:27:28;;;;;;;0.95;0.88;;;20.80;46.50;;;;;;5013792;28;20037;-87
2023/09/10 10:29:53;;;;;;;0.88;0.88;;;20.90;46.50;;;;;;5015111;28;20040;-89
2023/09/10 10:32:30;;;;;;;1.70;0.90;;;20.90;46.50;;;;;;5023283;28;20030;-88
2023/09/10 10:35:01;;;;;;;1.10;1.00;;;21.00;46.60;;;;;;5015127;28;20433;-85
2023/09/10 10:37:36;;;;;;;0.88;0.88;;;21.10;46.40;;;;;;5012874;28;20123;-82
2023/09/10 10:40:10;;;;;;;2.25;0.80;;;21.20;46.50;;;;;;5028514;28;20412;-85
2023/09/10 10:42:47;;;;;;;1.00;0.90;;;21.30;46.40;;;;;;5019969;28;20029;-85
2023/09/10 10:45:17;;;;;;;1.63;0.95;;;21.30;46.20;;;;;;5025206;28;20034;-81
2023/09/10 10:47:44;;;;;;;0.93;0.90;;;21.40;46.10;;;;;;5029424;28;20030;-81
2023/09/10 10:50:11;;;;;;;0.90;0.90;;;21.40;46.00;;;;;;5026202;28;20037;-87
2023/09/10 10:52:58;;;;;;;1.05;0.93;;;21.50;46.00;;;;;;5019024;28;20034;-82
2023/09/10 10:55:24;;;;;;;1.20;1.10;;;21.50;45.80;;;;;;5014517;28;20053;-79
2023/09/10 10:57:51;;;;;;;3.13;1.10;;;21.50;45.90;;;;;;5025779;28;20510;-77
2023/09/10 11:00:17;;;;;;;1.10;1.00;;;21.60;45.90;;;;;;5034393;28;20025;-80
2023/09/10 11:02:45;;;;;;;1.00;0.90;;;21.60;45.90;;;;;;5035691;28;20103;-71
2023/09/10 11:05:10;;;;;;;1.10;0.98;;;21.60;45.80;;;;;;5021343;28;20022;-72
2023/09/10 11:07:36;;;;;;;1.73;0.90;;;21.70;45.70;;;;;;5036673;28;20091;-75
2023/09/10 11:10:27;;;;;;;0.95;0.80;;;21.80;45.70;;;;;;5020787;28;20036;-76
2023/09/10 11:13:09;;;;;;;1.50;0.80;;;21.90;45.40;;;;;;5027518;28;20041;-75
2023/09/10 11:15:35;;;;;;;1.13;1.00;;;21.90;45.40;;;;;;5029428;28;20025;-82
2023/09/10 11:18:34;;;;;;;1.20;0.95;;;21.80;45.00;;;;;;5027286;28;20614;-76
2023/09/10 11:21:01;;;;;;;16.50;14.85;;;21.80;45.30;;;;;;5036163;28;20045;-76
2023/09/10 11:23:26;;;;;;;2.47;0.90;;;21.80;45.50;;;;;;5041375;28;20108;-75
2023/09/10 11:25:52;;;;;;;0.70;0.70;;;21.90;45.50;;;;;;5036542;28;20068;-78
2023/09/10 11:28:43;;;;;;;1.25;1.00;;;21.90;45.40;;;;;;5032856;28;20046;-82
2023/09/10 11:31:33;;;;;;;1.05;0.95;;;22.00;45.20;;;;;;5050988;28;20029;-82
2023/09/10 11:34:17;;;;;;;1.00;0.90;;;22.00;45.30;;;;;;5025117;28;20025;-81
2023/09/10 11:36:51;;;;;;;1.10;0.83;;;22.10;45.10;;;;;;5036335;28;20058;-84
2023/09/10 11:39:18;;;;;;;;;;;22.20;45.30;;;;;;5017909;28;20117;-83
2023/09/10 11:41:48;;;;;;;0.60;0.60;;;22.20;45.30;;;;;;5028903;28;19944;-84
2023/09/10 11:44:14;;;;;;;2.70;0.90;;;22.30;45.30;;;;;;5031814;28;20045;-86
2023/09/10 11:46:40;;;;;;;2.20;0.93;;;22.40;45.30;;;;;;5023717;28;20034;-84
2023/09/10 11:49:06;;;;;;;1.13;1.00;;;22.50;45.20;;;;;;5019208;28;20045;-77
2023/09/10 11:51:32;;;;;;;1.20;1.00;;;22.50;45.00;;;;;;5036128;28;20029;-76
2023/09/10 11:53:59;;;;;;;1.30;1.02;;;22.50;44.80;;;;;;5034980;28;20022;-77
2023/09/10 11:56:25;;;;;;;1.27;0.80;;;22.50;44.90;;;;;;5030475;28;20121;-76
2023/09/10 11:58:52;;;;;;;0.95;0.90;;;22.50;44.90;;;;;;5034544;28;20117;-77
2023/09/10 12:01:18;;;;;;;1.90;0.93;;;22.60;44.90;;;;;;5034982;28;20034;-78
2023/09/10 12:03:45;;;;;;;0.60;0.60;;;22.60;45.00;;;;;;5040286;28;20033;-77
2023/09/10 12:06:14;;;;;;;2.28;0.88;;;22.70;45.00;;;;;;5040851;28;20021;-77
2023/09/10 12:08:39;;;;;;;1.00;0.90;;;22.80;44.80;;;;;;5042303;28;20030;-79
2023/09/10 12:11:08;;;;;;;6.32;5.70;;;22.80;44.70;;;;;;5042300;28;20029;-74
2023/09/10 12:13:36;;;;;;;1.33;0.90;;;22.80;44.60;;;;;;5046082;28;20034;-74
2023/09/10 12:16:03;;;;;;;1.20;1.00;;;22.80;44.50;;;;;;5035130;28;20428;-73
2023/09/10 12:18:29;;;;;;;0.90;0.90;;;22.90;44.50;;;;;;5041147;28;20052;-72
2023/09/10 12:20:57;;;;;;;3.58;0.93;;;22.90;44.60;;;;;;5044418;28;20029;-72
2023/09/10 12:23:22;;;;;;;1.75;0.90;;;23.00;44.60;;;;;;5028258;28;20017;-85
2023/09/10 12:26:00;;;;;;;0.80;0.80;;;23.00;44.60;;;;;;5040304;28;20486;-81
2023/09/10 12:28:26;;;;;;;0.73;0.70;;;23.10;44.40;;;;;;5048878;28;20160;-81
2023/09/10 12:30:53;;;;;;;1.30;0.80;;;23.20;44.50;;;;;;5034922;28;20052;-76
2023/09/10 12:33:20;;;;;;;4.18;0.88;;;23.20;44.60;;;;;;5029726;28;20464;-84
2023/09/10 12:35:47;;;;;;;1.05;0.80;;;23.30;44.50;;;;;;5032096;28;20057;-79
2023/09/10 12:38:15;;;;;;;1.10;1.00;;;23.30;44.40;;;;;;5019989;28;20522;-81
2023/09/10 12:40:42;;;;;;;1.58;0.93;;;23.40;44.40;;;;;;5033020;28;20025;-81
2023/09/10 12:43:08;;;;;;;1.95;1.00;;;23.40;44.30;;;;;;5029259;28;20022;-83
2023/09/10 12:45:35;;;;;;;1.15;0.88;;;23.50;44.30;;;;;;5035052;28;20040;-81
2023/09/10 12:48:01;;;;;;;1.70;1.58;;;23.60;44.30;;;;;;5041442;28;20596;-77